sensor_id;sensor_type;location;lat;lon;timestamp;temperature;humidity
25933;DHT22;13731;51.166;4.474;2023-01-24T00:01:23;3.50;1.00
25933;DHT22;13731;51.166;4.474;2023-01-24T00:03:49;3.40;1.00
25933;DHT22;13731;51.166;4.474;2023-01-24T00:06:15;3.40;1.00
25933;DHT22;13731;51.166;4.474;2023-01-24T00:08:41;3.30;1.00
25933;DHT22;13731;51.166;4.474;2023-01-24T00:11:09;3.30;1.00
25933;DHT22;13731;51.166;4.474;2023-01-24T00:13:35;3.30;99.90
25933;DHT22;13731;51.166;4.474;2023-01-24T00:18:32;3.40;1.00
25933;DHT22;13731;51.166;4.474;2023-01-24T00:21:06;3.40;22.40
25933;DHT22;13731;51.166;4.474;2023-01-24T00:23:36;3.50;99.90
25933;DHT22;13731;51.166;4.474;2023-01-24T00:26:03;3.50;99.90
25933;DHT22;13731;51.166;4.474;2023-01-24T00:28:30;3.40;1.00
25933;DHT22;13731;51.166;4.474;2023-01-24T00:30:56;3.40;1.00
25933;DHT22;13731;51.166;4.474;2023-01-24T00:33:21;3.50;1.00
25933;DHT22;13731;51.166;4.474;2023-01-24T00:35:49;3.40;1.00
25933;DHT22;13731;51.166;4.474;2023-01-24T00:38:16;3.40;1.00
25933;DHT22;13731;51.166;4.474;2023-01-24T00:40:42;3.40;1.00
25933;DHT22;13731;51.166;4.474;2023-01-24T00:43:08;3.40;1.00
25933;DHT22;13731;51.166;4.474;2023-01-24T00:45:38;3.30;11.80
25933;DHT22;13731;51.166;4.474;2023-01-24T00:48:06;3.50;63.50
25933;DHT22;13731;51.166;4.474;2023-01-24T00:50:32;3.50;1.00
25933;DHT22;13731;51.166;4.474;2023-01-24T00:52:59;3.50;99.90
25933;DHT22;13731;51.166;4.474;2023-01-24T00:55:26;3.50;1.00
25933;DHT22;13731;51.166;4.474;2023-01-24T00:57:52;3.60;99.90
25933;DHT22;13731;51.166;4.474;2023-01-24T01:00:19;3.60;99.90
25933;DHT22;13731;51.166;4.474;2023-01-24T01:02:47;3.60;1.00
25933;DHT22;13731;51.166;4.474;2023-01-24T01:05:13;3.60;99.90
25933;DHT22;13731;51.166;4.474;2023-01-24T01:07:39;3.60;99.90
25933;DHT22;13731;51.166;4.474;2023-01-24T01:10:06;3.70;1.00
25933;DHT22;13731;51.166;4.474;2023-01-24T01:12:32;3.60;99.90
25933;DHT22;13731;51.166;4.474;2023-01-24T01:14:59;3.50;99.90
25933;DHT22;13731;51.166;4.474;2023-01-24T01:17:26;3.40;1.00
25933;DHT22;13731;51.166;4.474;2023-01-24T01:19:52;3.50;27.50
25933;DHT22;13731;51.166;4.474;2023-01-24T01:22:19;3.40;71.70
25933;DHT22;13731;51.166;4.474;2023-01-24T01:24:46;3.40;99.90
25933;DHT22;13731;51.166;4.474;2023-01-24T01:32:50;3.30;99.90
25933;DHT22;13731;51.166;4.474;2023-01-24T01:35:16;3.30;99.90
25933;DHT22;13731;51.166;4.474;2023-01-24T01:37:42;3.30;99.90
25933;DHT22;13731;51.166;4.474;2023-01-24T01:40:08;3.40;67.10
25933;DHT22;13731;51.166;4.474;2023-01-24T01:42:54;3.30;99.90
25933;DHT22;13731;51.166;4.474;2023-01-24T01:45:38;3.20;99.90
25933;DHT22;13731;51.166;4.474;2023-01-24T01:48:19;3.20;99.90
25933;DHT22;13731;51.166;4.474;2023-01-24T01:51:06;3.30;99.90
25933;DHT22;13731;51.166;4.474;2023-01-24T01:54:00;3.30;99.90
25933;DHT22;13731;51.166;4.474;2023-01-24T01:56:29;3.30;99.90
25933;DHT22;13731;51.166;4.474;2023-01-24T01:58:58;3.30;99.90
25933;DHT22;13731;51.166;4.474;2023-01-24T02:01:26;3.40;99.90
25933;DHT22;13731;51.166;4.474;2023-01-24T02:04:01;3.30;1.00
25933;DHT22;13731;51.166;4.474;2023-01-24T02:09:09;3.30;99.90
25933;DHT22;13731;51.166;4.474;2023-01-24T02:11:37;3.30;1.00
25933;DHT22;13731;51.166;4.474;2023-01-24T02:14:04;3.40;1.00
25933;DHT22;13731;51.166;4.474;2023-01-24T02:16:49;3.30;1.00
25933;DHT22;13731;51.166;4.474;2023-01-24T02:22:34;3.30;1.00
25933;DHT22;13731;51.166;4.474;2023-01-24T02:25:25;3.20;1.00
25933;DHT22;13731;51.166;4.474;2023-01-24T02:27:53;3.30;1.00
25933;DHT22;13731;51.166;4.474;2023-01-24T02:30:19;3.30;1.00
25933;DHT22;13731;51.166;4.474;2023-01-24T02:32:45;3.40;1.00
25933;DHT22;13731;51.166;4.474;2023-01-24T02:35:26;3.30;1.00
25933;DHT22;13731;51.166;4.474;2023-01-24T02:37:53;3.20;1.00
25933;DHT22;13731;51.166;4.474;2023-01-24T02:40:20;3.20;1.00
25933;DHT22;13731;51.166;4.474;2023-01-24T02:42:47;3.20;30.10
25933;DHT22;13731;51.166;4.474;2023-01-24T02:45:27;3.30;99.90
25933;DHT22;13731;51.166;4.474;2023-01-24T02:47:55;3.20;1.00
25933;DHT22;13731;51.166;4.474;2023-01-24T02:50:24;3.30;1.00
25933;DHT22;13731;51.166;4.474;2023-01-24T02:52:50;3.30;1.00
25933;DHT22;13731;51.166;4.474;2023-01-24T02:55:36;3.40;99.90
25933;DHT22;13731;51.166;4.474;2023-01-24T02:58:27;3.30;99.90
25933;DHT22;13731;51.166;4.474;2023-01-24T03:00:53;3.20;1.00
25933;DHT22;13731;51.166;4.474;2023-01-24T03:03:19;3.20;1.00
25933;DHT22;13731;51.166;4.474;2023-01-24T03:05:45;3.20;1.50
25933;DHT22;13731;51.166;4.474;2023-01-24T03:08:32;3.30;99.90
25933;DHT22;13731;51.166;4.474;2023-01-24T03:11:00;3.20;1.00
25933;DHT22;13731;51.166;4.474;2023-01-24T03:13:28;3.20;50.10
25933;DHT22;13731;51.166;4.474;2023-01-24T03:16:13;3.20;1.00
25933;DHT22;13731;51.166;4.474;2023-01-24T03:18:58;3.10;99.90
25933;DHT22;13731;51.166;4.474;2023-01-24T03:21:43;3.20;99.90
25933;DHT22;13731;51.166;4.474;2023-01-24T03:24:27;3.40;99.90
25933;DHT22;13731;51.166;4.474;2023-01-24T03:27:12;3.30;1.00
25933;DHT22;13731;51.166;4.474;2023-01-24T03:29:58;3.30;1.00
25933;DHT22;13731;51.166;4.474;2023-01-24T03:32:43;3.30;1.00
25933;DHT22;13731;51.166;4.474;2023-01-24T03:35:28;3.30;99.90
25933;DHT22;13731;51.166;4.474;2023-01-24T03:37:54;3.30;1.00
25933;DHT22;13731;51.166;4.474;2023-01-24T03:40:39;3.30;1.00
25933;DHT22;13731;51.166;4.474;2023-01-24T03:43:05;3.40;99.90
25933;DHT22;13731;51.166;4.474;2023-01-24T03:45:37;3.40;99.90
25933;DHT22;13731;51.166;4.474;2023-01-24T03:48:05;3.50;99.90
25933;DHT22;13731;51.166;4.474;2023-01-24T03:50:37;3.40;99.90
25933;DHT22;13731;51.166;4.474;2023-01-24T03:53:29;3.40;1.00
25933;DHT22;13731;51.166;4.474;2023-01-24T03:56:00;3.30;99.90
25933;DHT22;13731;51.166;4.474;2023-01-24T03:58:32;3.30;1.00
25933;DHT22;13731;51.166;4.474;2023-01-24T04:01:01;3.30;99.90
25933;DHT22;13731;51.166;4.474;2023-01-24T04:04:02;3.30;1.00
25933;DHT22;13731;51.166;4.474;2023-01-24T04:06:31;3.30;1.00
25933;DHT22;13731;51.166;4.474;2023-01-24T04:08:59;3.40;99.90
25933;DHT22;13731;51.166;4.474;2023-01-24T04:11:25;3.30;99.90
25933;DHT22;13731;51.166;4.474;2023-01-24T04:14:00;3.20;1.00
25933;DHT22;13731;51.166;4.474;2023-01-24T04:16:27;3.20;1.00
25933;DHT22;13731;51.166;4.474;2023-01-24T04:19:08;3.30;99.90
25933;DHT22;13731;51.166;4.474;2023-01-24T04:21:34;3.30;99.90
25933;DHT22;13731;51.166;4.474;2023-01-24T04:24:00;3.40;99.90
25933;DHT22;13731;51.166;4.474;2023-01-24T04:26:27;3.40;99.90
25933;DHT22;13731;51.166;4.474;2023-01-24T04:28:54;3.60;99.90
25933;DHT22;13731;51.166;4.474;2023-01-24T04:31:20;3.50;1.00
25933;DHT22;13731;51.166;4.474;2023-01-24T04:34:04;3.40;99.90
25933;DHT22;13731;51.166;4.474;2023-01-24T04:36:32;3.50;99.90
25933;DHT22;13731;51.166;4.474;2023-01-24T04:38:59;3.40;99.90
25933;DHT22;13731;51.166;4.474;2023-01-24T04:41:34;3.40;99.90
25933;DHT22;13731;51.166;4.474;2023-01-24T04:44:00;3.40;99.90
25933;DHT22;13731;51.166;4.474;2023-01-24T04:46:28;3.30;1.00
25933;DHT22;13731;51.166;4.474;2023-01-24T04:48:55;3.40;99.90
25933;DHT22;13731;51.166;4.474;2023-01-24T04:51:28;3.30;99.90
25933;DHT22;13731;51.166;4.474;2023-01-24T04:53:54;3.30;1.00
25933;DHT22;13731;51.166;4.474;2023-01-24T04:56:24;3.10;1.00
25933;DHT22;13731;51.166;4.474;2023-01-24T04:58:50;3.20;1.00
25933;DHT22;13731;51.166;4.474;2023-01-24T05:01:16;3.30;1.00
25933;DHT22;13731;51.166;4.474;2023-01-24T05:03:53;3.30;99.90
25933;DHT22;13731;51.166;4.474;2023-01-24T05:06:26;3.10;1.00
25933;DHT22;13731;51.166;4.474;2023-01-24T05:08:55;3.20;99.90
25933;DHT22;13731;51.166;4.474;2023-01-24T05:11:26;3.20;99.90
25933;DHT22;13731;51.166;4.474;2023-01-24T05:13:56;3.10;99.90
25933;DHT22;13731;51.166;4.474;2023-01-24T05:16:22;3.10;99.90
25933;DHT22;13731;51.166;4.474;2023-01-24T05:18:48;3.10;99.90
25933;DHT22;13731;51.166;4.474;2023-01-24T05:21:15;3.20;99.90
25933;DHT22;13731;51.166;4.474;2023-01-24T05:23:43;3.20;99.90
25933;DHT22;13731;51.166;4.474;2023-01-24T05:26:09;3.20;99.90
25933;DHT22;13731;51.166;4.474;2023-01-24T05:28:35;3.30;1.00
25933;DHT22;13731;51.166;4.474;2023-01-24T05:31:04;3.20;99.90
25933;DHT22;13731;51.166;4.474;2023-01-24T05:33:33;3.20;99.90
25933;DHT22;13731;51.166;4.474;2023-01-24T05:36:06;3.10;1.00
25933;DHT22;13731;51.166;4.474;2023-01-24T05:38:35;3.20;99.90
25933;DHT22;13731;51.166;4.474;2023-01-24T05:41:05;3.30;99.90
25933;DHT22;13731;51.166;4.474;2023-01-24T05:43:33;3.20;99.90
25933;DHT22;13731;51.166;4.474;2023-01-24T05:46:14;3.10;1.00
25933;DHT22;13731;51.166;4.474;2023-01-24T05:48:48;3.10;1.00
25933;DHT22;13731;51.166;4.474;2023-01-24T05:51:17;3.00;1.00
25933;DHT22;13731;51.166;4.474;2023-01-24T05:53:45;3.00;1.00
25933;DHT22;13731;51.166;4.474;2023-01-24T05:56:14;3.00;58.50
25933;DHT22;13731;51.166;4.474;2023-01-24T05:58:42;3.00;1.00
25933;DHT22;13731;51.166;4.474;2023-01-24T06:01:17;3.00;99.90
25933;DHT22;13731;51.166;4.474;2023-01-24T06:03:46;3.10;99.90
25933;DHT22;13731;51.166;4.474;2023-01-24T06:06:15;3.00;42.30
25933;DHT22;13731;51.166;4.474;2023-01-24T06:08:42;3.00;99.90
25933;DHT22;13731;51.166;4.474;2023-01-24T06:11:14;2.90;99.90
25933;DHT22;13731;51.166;4.474;2023-01-24T06:13:40;2.90;99.90
25933;DHT22;13731;51.166;4.474;2023-01-24T06:16:11;2.80;1.00
25933;DHT22;13731;51.166;4.474;2023-01-24T06:18:38;2.80;1.00
25933;DHT22;13731;51.166;4.474;2023-01-24T06:21:06;2.90;1.00
25933;DHT22;13731;51.166;4.474;2023-01-24T06:23:32;2.90;1.00
25933;DHT22;13731;51.166;4.474;2023-01-24T06:26:01;2.80;1.00
25933;DHT22;13731;51.166;4.474;2023-01-24T06:28:27;2.80;1.00
25933;DHT22;13731;51.166;4.474;2023-01-24T06:31:02;2.80;99.20
25933;DHT22;13731;51.166;4.474;2023-01-24T06:38:37;2.90;1.00
25933;DHT22;13731;51.166;4.474;2023-01-24T06:41:13;2.80;1.00
25933;DHT22;13731;51.166;4.474;2023-01-24T06:43:39;2.80;1.00
25933;DHT22;13731;51.166;4.474;2023-01-24T06:46:05;2.70;99.90
25933;DHT22;13731;51.166;4.474;2023-01-24T06:48:31;2.80;99.90
25933;DHT22;13731;51.166;4.474;2023-01-24T06:50:57;2.80;1.00
25933;DHT22;13731;51.166;4.474;2023-01-24T06:53:24;2.90;1.00
25933;DHT22;13731;51.166;4.474;2023-01-24T06:55:50;3.00;99.90
25933;DHT22;13731;51.166;4.474;2023-01-24T06:58:16;3.00;99.90
25933;DHT22;13731;51.166;4.474;2023-01-24T07:00:42;3.00;1.00
25933;DHT22;13731;51.166;4.474;2023-01-24T07:03:08;3.00;1.00
25933;DHT22;13731;51.166;4.474;2023-01-24T07:05:36;3.00;53.60
25933;DHT22;13731;51.166;4.474;2023-01-24T07:08:03;2.90;1.00
25933;DHT22;13731;51.166;4.474;2023-01-24T07:10:29;2.90;1.00
25933;DHT22;13731;51.166;4.474;2023-01-24T07:12:55;2.80;1.00
25933;DHT22;13731;51.166;4.474;2023-01-24T07:15:21;2.70;1.00
25933;DHT22;13731;51.166;4.474;2023-01-24T07:17:47;2.80;23.60
25933;DHT22;13731;51.166;4.474;2023-01-24T07:20:13;2.90;1.00
25933;DHT22;13731;51.166;4.474;2023-01-24T07:22:40;2.90;99.90
25933;DHT22;13731;51.166;4.474;2023-01-24T07:25:16;2.80;1.00
25933;DHT22;13731;51.166;4.474;2023-01-24T07:27:43;2.70;99.90
25933;DHT22;13731;51.166;4.474;2023-01-24T07:30:10;2.70;99.90
25933;DHT22;13731;51.166;4.474;2023-01-24T07:32:36;2.60;1.00
25933;DHT22;13731;51.166;4.474;2023-01-24T07:35:03;2.60;99.90
25933;DHT22;13731;51.166;4.474;2023-01-24T07:37:29;2.60;46.70
25933;DHT22;13731;51.166;4.474;2023-01-24T07:39:56;2.70;40.60
25933;DHT22;13731;51.166;4.474;2023-01-24T07:42:21;2.70;1.00
25933;DHT22;13731;51.166;4.474;2023-01-24T07:44:47;2.80;1.00
25933;DHT22;13731;51.166;4.474;2023-01-24T07:47:13;2.90;99.90
25933;DHT22;13731;51.166;4.474;2023-01-24T07:49:39;2.80;99.90
25933;DHT22;13731;51.166;4.474;2023-01-24T07:52:05;2.90;1.00
25933;DHT22;13731;51.166;4.474;2023-01-24T07:54:31;2.90;99.90
25933;DHT22;13731;51.166;4.474;2023-01-24T07:56:57;2.90;99.90
25933;DHT22;13731;51.166;4.474;2023-01-24T07:59:23;2.80;51.00
25933;DHT22;13731;51.166;4.474;2023-01-24T08:01:48;2.90;1.00
25933;DHT22;13731;51.166;4.474;2023-01-24T08:04:14;3.00;99.90
25933;DHT22;13731;51.166;4.474;2023-01-24T08:06:40;2.90;1.00
25933;DHT22;13731;51.166;4.474;2023-01-24T08:09:24;2.80;96.50
25933;DHT22;13731;51.166;4.474;2023-01-24T08:11:52;2.80;99.90
25933;DHT22;13731;51.166;4.474;2023-01-24T08:14:18;2.70;99.90
25933;DHT22;13731;51.166;4.474;2023-01-24T08:16:44;2.60;1.00
25933;DHT22;13731;51.166;4.474;2023-01-24T08:19:10;2.70;1.00
25933;DHT22;13731;51.166;4.474;2023-01-24T08:21:35;2.70;1.00
25933;DHT22;13731;51.166;4.474;2023-01-24T08:24:01;2.80;1.00
25933;DHT22;13731;51.166;4.474;2023-01-24T08:26:27;2.70;1.00
25933;DHT22;13731;51.166;4.474;2023-01-24T08:28:53;2.70;1.00
25933;DHT22;13731;51.166;4.474;2023-01-24T08:31:19;2.80;75.30
25933;DHT22;13731;51.166;4.474;2023-01-24T08:33:45;2.90;1.00
25933;DHT22;13731;51.166;4.474;2023-01-24T08:36:11;3.00;99.90
25933;DHT22;13731;51.166;4.474;2023-01-24T08:38:37;2.90;99.90
25933;DHT22;13731;51.166;4.474;2023-01-24T08:41:04;3.00;99.90
25933;DHT22;13731;51.166;4.474;2023-01-24T08:43:30;3.10;99.90
25933;DHT22;13731;51.166;4.474;2023-01-24T08:45:56;3.10;1.00
25933;DHT22;13731;51.166;4.474;2023-01-24T08:48:22;3.00;99.90
25933;DHT22;13731;51.166;4.474;2023-01-24T08:50:48;2.90;1.00
25933;DHT22;13731;51.166;4.474;2023-01-24T08:53:14;2.90;99.90
25933;DHT22;13731;51.166;4.474;2023-01-24T08:55:40;2.90;1.00
25933;DHT22;13731;51.166;4.474;2023-01-24T08:58:06;3.00;99.90
25933;DHT22;13731;51.166;4.474;2023-01-24T09:00:32;2.90;1.00
25933;DHT22;13731;51.166;4.474;2023-01-24T09:02:58;2.90;1.00
25933;DHT22;13731;51.166;4.474;2023-01-24T09:05:29;3.00;99.90
25933;DHT22;13731;51.166;4.474;2023-01-24T09:07:55;3.10;1.00
25933;DHT22;13731;51.166;4.474;2023-01-24T09:10:21;3.00;1.00
25933;DHT22;13731;51.166;4.474;2023-01-24T09:12:47;2.90;99.90
25933;DHT22;13731;51.166;4.474;2023-01-24T09:15:13;3.00;25.00
25933;DHT22;13731;51.166;4.474;2023-01-24T09:17:38;3.10;1.00
25933;DHT22;13731;51.166;4.474;2023-01-24T09:20:06;3.00;1.00
25933;DHT22;13731;51.166;4.474;2023-01-24T09:22:32;3.00;1.00
25933;DHT22;13731;51.166;4.474;2023-01-24T09:24:58;3.10;1.00
25933;DHT22;13731;51.166;4.474;2023-01-24T09:27:24;3.00;33.10
25933;DHT22;13731;51.166;4.474;2023-01-24T09:29:49;3.10;1.00
25933;DHT22;13731;51.166;4.474;2023-01-24T09:32:15;3.30;99.90
25933;DHT22;13731;51.166;4.474;2023-01-24T09:34:42;3.10;47.50
25933;DHT22;13731;51.166;4.474;2023-01-24T09:37:19;3.00;1.00
25933;DHT22;13731;51.166;4.474;2023-01-24T09:39:45;2.90;1.00
25933;DHT22;13731;51.166;4.474;2023-01-24T09:42:39;2.90;99.90
25933;DHT22;13731;51.166;4.474;2023-01-24T09:45:23;2.90;1.00
25933;DHT22;13731;51.166;4.474;2023-01-24T09:47:57;3.00;1.00
25933;DHT22;13731;51.166;4.474;2023-01-24T09:53:41;3.10;24.80
25933;DHT22;13731;51.166;4.474;2023-01-24T09:56:18;3.20;92.90
25933;DHT22;13731;51.166;4.474;2023-01-24T10:01:48;3.00;99.90
25933;DHT22;13731;51.166;4.474;2023-01-24T10:04:17;3.00;1.00
25933;DHT22;13731;51.166;4.474;2023-01-24T10:09:48;3.30;99.90
25933;DHT22;13731;51.166;4.474;2023-01-24T10:17:37;3.60;7.40
25933;DHT22;13731;51.166;4.474;2023-01-24T10:25:48;3.30;99.90
25933;DHT22;13731;51.166;4.474;2023-01-24T10:28:20;3.50;76.30
25933;DHT22;13731;51.166;4.474;2023-01-24T10:33:41;3.20;1.00
25933;DHT22;13731;51.166;4.474;2023-01-24T10:39:04;3.30;99.90
25933;DHT22;13731;51.166;4.474;2023-01-24T10:41:31;3.30;1.00
25933;DHT22;13731;51.166;4.474;2023-01-24T10:44:13;3.30;1.00
25933;DHT22;13731;51.166;4.474;2023-01-24T10:49:17;3.50;1.00
25933;DHT22;13731;51.166;4.474;2023-01-24T10:52:08;3.50;99.90
25933;DHT22;13731;51.166;4.474;2023-01-24T10:54:51;3.40;99.90
25933;DHT22;13731;51.166;4.474;2023-01-24T10:59:49;3.40;99.90
25933;DHT22;13731;51.166;4.474;2023-01-24T11:02:24;3.50;99.90
25933;DHT22;13731;51.166;4.474;2023-01-24T11:05:04;3.60;99.90
25933;DHT22;13731;51.166;4.474;2023-01-24T11:07:35;3.40;99.90
25933;DHT22;13731;51.166;4.474;2023-01-24T11:10:25;3.30;99.90
25933;DHT22;13731;51.166;4.474;2023-01-24T11:12:54;3.20;99.90
25933;DHT22;13731;51.166;4.474;2023-01-24T11:15:25;3.20;99.90
25933;DHT22;13731;51.166;4.474;2023-01-24T11:20:44;3.50;13.10
25933;DHT22;13731;51.166;4.474;2023-01-24T11:23:18;3.60;1.00
25933;DHT22;13731;51.166;4.474;2023-01-24T11:25:58;3.60;1.00
25933;DHT22;13731;51.166;4.474;2023-01-24T11:28:29;3.70;4.30
25933;DHT22;13731;51.166;4.474;2023-01-24T11:30:59;3.70;1.00
25933;DHT22;13731;51.166;4.474;2023-01-24T11:38:52;3.40;13.30
25933;DHT22;13731;51.166;4.474;2023-01-24T11:41:30;3.30;99.90
25933;DHT22;13731;51.166;4.474;2023-01-24T12:06:16;3.60;1.00
25933;DHT22;13731;51.166;4.474;2023-01-24T12:14:32;3.40;1.00
25933;DHT22;13731;51.166;4.474;2023-01-24T12:22:41;3.40;1.00
25933;DHT22;13731;51.166;4.474;2023-01-24T12:25:55;3.40;1.00
25933;DHT22;13731;51.166;4.474;2023-01-24T12:28:28;3.20;99.60
25933;DHT22;13731;51.166;4.474;2023-01-24T12:30:57;3.30;99.90
25933;DHT22;13731;51.166;4.474;2023-01-24T12:33:33;3.20;99.90
25933;DHT22;13731;51.166;4.474;2023-01-24T12:36:07;3.30;99.90
25933;DHT22;13731;51.166;4.474;2023-01-24T12:38:45;3.40;77.60
25933;DHT22;13731;51.166;4.474;2023-01-24T12:41:24;3.60;1.00
25933;DHT22;13731;51.166;4.474;2023-01-24T12:46:25;3.80;45.70
25933;DHT22;13731;51.166;4.474;2023-01-24T12:52:06;3.90;99.90
25933;DHT22;13731;51.166;4.474;2023-01-24T12:55:08;3.70;99.90
25933;DHT22;13731;51.166;4.474;2023-01-24T12:57:45;3.60;99.90
25933;DHT22;13731;51.166;4.474;2023-01-24T13:00:16;3.50;99.90
25933;DHT22;13731;51.166;4.474;2023-01-24T13:03:09;3.60;99.90
25933;DHT22;13731;51.166;4.474;2023-01-24T13:08:21;3.40;1.00
25933;DHT22;13731;51.166;4.474;2023-01-24T13:14:07;3.40;1.00
25933;DHT22;13731;51.166;4.474;2023-01-24T13:16:46;3.50;99.90
25933;DHT22;13731;51.166;4.474;2023-01-24T13:19:25;3.60;99.90
25933;DHT22;13731;51.166;4.474;2023-01-24T13:22:23;3.40;99.90
25933;DHT22;13731;51.166;4.474;2023-01-24T13:27:45;3.40;99.90
25933;DHT22;13731;51.166;4.474;2023-01-24T13:30:34;3.30;99.90
25933;DHT22;13731;51.166;4.474;2023-01-24T13:33:04;3.20;1.00
25933;DHT22;13731;51.166;4.474;2023-01-24T13:35:31;3.30;1.00
25933;DHT22;13731;51.166;4.474;2023-01-24T13:38:04;3.40;99.90
25933;DHT22;13731;51.166;4.474;2023-01-24T13:40:32;3.40;99.90
25933;DHT22;13731;51.166;4.474;2023-01-24T13:46:02;3.30;99.90
25933;DHT22;13731;51.166;4.474;2023-01-24T13:56:28;3.60;99.90
25933;DHT22;13731;51.166;4.474;2023-01-24T13:58:55;3.50;1.00
25933;DHT22;13731;51.166;4.474;2023-01-24T14:01:21;3.70;42.80
25933;DHT22;13731;51.166;4.474;2023-01-24T14:03:59;3.80;69.10
25933;DHT22;13731;51.166;4.474;2023-01-24T14:06:27;4.00;1.00
25933;DHT22;13731;51.166;4.474;2023-01-24T14:11:59;3.80;1.00
25933;DHT22;13731;51.166;4.474;2023-01-24T14:14:57;3.80;1.00
25933;DHT22;13731;51.166;4.474;2023-01-24T14:17:49;3.80;1.00
25933;DHT22;13731;51.166;4.474;2023-01-24T14:20:21;4.10;99.90
25933;DHT22;13731;51.166;4.474;2023-01-24T14:22:52;3.80;99.90
25933;DHT22;13731;51.166;4.474;2023-01-24T14:25:45;3.70;1.00
25933;DHT22;13731;51.166;4.474;2023-01-24T14:28:24;3.60;99.90
25933;DHT22;13731;51.166;4.474;2023-01-24T14:31:14;3.80;52.80
25933;DHT22;13731;51.166;4.474;2023-01-24T14:34:11;4.00;1.00
25933;DHT22;13731;51.166;4.474;2023-01-24T14:36:39;3.90;1.00
25933;DHT22;13731;51.166;4.474;2023-01-24T14:39:25;4.20;99.90
25933;DHT22;13731;51.166;4.474;2023-01-24T14:42:05;3.80;99.90
25933;DHT22;13731;51.166;4.474;2023-01-24T14:44:35;3.60;1.00
25933;DHT22;13731;51.166;4.474;2023-01-24T14:47:16;3.70;1.00
25933;DHT22;13731;51.166;4.474;2023-01-24T14:49:48;3.60;99.90
25933;DHT22;13731;51.166;4.474;2023-01-24T14:52:31;3.60;99.90
25933;DHT22;13731;51.166;4.474;2023-01-24T14:55:12;3.50;99.90
25933;DHT22;13731;51.166;4.474;2023-01-24T14:57:38;3.60;99.90
25933;DHT22;13731;51.166;4.474;2023-01-24T15:00:17;3.40;99.90
25933;DHT22;13731;51.166;4.474;2023-01-24T15:02:55;3.30;99.90
25933;DHT22;13731;51.166;4.474;2023-01-24T15:05:27;3.30;99.90
25933;DHT22;13731;51.166;4.474;2023-01-24T15:07:54;3.20;99.90
25933;DHT22;13731;51.166;4.474;2023-01-24T15:10:25;2.90;1.00
25933;DHT22;13731;51.166;4.474;2023-01-24T15:12:53;2.80;99.90
25933;DHT22;13731;51.166;4.474;2023-01-24T15:15:20;2.90;99.90
25933;DHT22;13731;51.166;4.474;2023-01-24T15:17:48;2.90;30.80
25933;DHT22;13731;51.166;4.474;2023-01-24T15:20:20;2.90;99.90
25933;DHT22;13731;51.166;4.474;2023-01-24T15:22:54;3.10;99.90
25933;DHT22;13731;51.166;4.474;2023-01-24T15:27:48;3.00;99.90
25933;DHT22;13731;51.166;4.474;2023-01-24T15:30:24;3.00;99.90
25933;DHT22;13731;51.166;4.474;2023-01-24T15:33:01;3.00;99.90
25933;DHT22;13731;51.166;4.474;2023-01-24T15:35:31;3.20;99.90
25933;DHT22;13731;51.166;4.474;2023-01-24T15:40:32;3.40;99.90
25933;DHT22;13731;51.166;4.474;2023-01-24T15:43:00;3.40;17.60
25933;DHT22;13731;51.166;4.474;2023-01-24T15:45:48;3.40;1.00
25933;DHT22;13731;51.166;4.474;2023-01-24T15:48:22;3.20;1.00
25933;DHT22;13731;51.166;4.474;2023-01-24T15:50:54;3.20;53.00
25933;DHT22;13731;51.166;4.474;2023-01-24T15:53:43;3.40;1.00
25933;DHT22;13731;51.166;4.474;2023-01-24T15:56:15;3.50;99.90
25933;DHT22;13731;51.166;4.474;2023-01-24T15:58:46;3.40;99.90
25933;DHT22;13731;51.166;4.474;2023-01-24T16:01:12;3.30;1.00
25933;DHT22;13731;51.166;4.474;2023-01-24T16:03:38;3.10;1.00
25933;DHT22;13731;51.166;4.474;2023-01-24T16:06:04;3.00;1.00
25933;DHT22;13731;51.166;4.474;2023-01-24T16:08:30;3.00;45.00
25933;DHT22;13731;51.166;4.474;2023-01-24T16:10:56;3.00;99.90
25933;DHT22;13731;51.166;4.474;2023-01-24T16:13:38;3.00;99.90
25933;DHT22;13731;51.166;4.474;2023-01-24T16:16:10;3.00;99.90
25933;DHT22;13731;51.166;4.474;2023-01-24T16:18:38;2.90;99.90
25933;DHT22;13731;51.166;4.474;2023-01-24T16:21:04;2.90;99.90
25933;DHT22;13731;51.166;4.474;2023-01-24T16:23:30;3.10;99.90
25933;DHT22;13731;51.166;4.474;2023-01-24T16:25:56;3.20;57.00
25933;DHT22;13731;51.166;4.474;2023-01-24T16:28:24;3.30;1.00
25933;DHT22;13731;51.166;4.474;2023-01-24T16:30:52;3.40;1.00
25933;DHT22;13731;51.166;4.474;2023-01-24T16:33:20;3.50;1.00
25933;DHT22;13731;51.166;4.474;2023-01-24T16:35:46;3.50;99.90
25933;DHT22;13731;51.166;4.474;2023-01-24T16:38:14;3.60;99.90
25933;DHT22;13731;51.166;4.474;2023-01-24T16:40:40;3.70;99.90
25933;DHT22;13731;51.166;4.474;2023-01-24T16:43:07;3.70;72.10
25933;DHT22;13731;51.166;4.474;2023-01-24T16:45:38;3.70;99.90
25933;DHT22;13731;51.166;4.474;2023-01-24T16:48:05;3.90;99.90
25933;DHT22;13731;51.166;4.474;2023-01-24T16:50:30;3.70;46.40
25933;DHT22;13731;51.166;4.474;2023-01-24T16:52:58;3.70;99.90
25933;DHT22;13731;51.166;4.474;2023-01-24T16:55:24;3.80;99.90
25933;DHT22;13731;51.166;4.474;2023-01-24T16:57:50;3.80;37.90
25933;DHT22;13731;51.166;4.474;2023-01-24T17:00:18;3.70;99.90
25933;DHT22;13731;51.166;4.474;2023-01-24T17:02:44;3.80;95.10
25933;DHT22;13731;51.166;4.474;2023-01-24T17:05:14;3.80;99.00
25933;DHT22;13731;51.166;4.474;2023-01-24T17:07:40;3.70;27.20
25933;DHT22;13731;51.166;4.474;2023-01-24T17:10:06;3.60;48.20
25933;DHT22;13731;51.166;4.474;2023-01-24T17:12:33;3.50;1.00
25933;DHT22;13731;51.166;4.474;2023-01-24T17:14:59;3.40;99.90
25933;DHT22;13731;51.166;4.474;2023-01-24T17:17:24;3.20;1.00
25933;DHT22;13731;51.166;4.474;2023-01-24T17:19:51;3.30;1.00
25933;DHT22;13731;51.166;4.474;2023-01-24T17:22:17;3.40;99.90
25933;DHT22;13731;51.166;4.474;2023-01-24T17:24:44;3.20;99.90
25933;DHT22;13731;51.166;4.474;2023-01-24T17:27:10;3.20;1.00
25933;DHT22;13731;51.166;4.474;2023-01-24T17:29:36;3.20;1.00
25933;DHT22;13731;51.166;4.474;2023-01-24T17:32:02;3.20;1.00
25933;DHT22;13731;51.166;4.474;2023-01-24T17:34:28;3.10;1.00
25933;DHT22;13731;51.166;4.474;2023-01-24T17:36:54;2.90;99.90
25933;DHT22;13731;51.166;4.474;2023-01-24T17:39:20;3.00;99.90
25933;DHT22;13731;51.166;4.474;2023-01-24T17:41:45;3.00;99.90
25933;DHT22;13731;51.166;4.474;2023-01-24T17:44:11;3.20;99.90
25933;DHT22;13731;51.166;4.474;2023-01-24T17:46:37;3.20;1.00
25933;DHT22;13731;51.166;4.474;2023-01-24T17:49:03;3.20;1.00
25933;DHT22;13731;51.166;4.474;2023-01-24T17:51:29;3.20;1.00
25933;DHT22;13731;51.166;4.474;2023-01-24T17:53:57;3.30;1.00
25933;DHT22;13731;51.166;4.474;2023-01-24T17:56:24;3.30;1.00
25933;DHT22;13731;51.166;4.474;2023-01-24T17:58:49;3.30;99.90
25933;DHT22;13731;51.166;4.474;2023-01-24T18:01:15;3.50;1.00
25933;DHT22;13731;51.166;4.474;2023-01-24T18:03:44;3.60;1.00
25933;DHT22;13731;51.166;4.474;2023-01-24T18:06:10;3.50;99.90
25933;DHT22;13731;51.166;4.474;2023-01-24T18:08:35;3.40;1.00
25933;DHT22;13731;51.166;4.474;2023-01-24T18:11:10;3.40;1.00
25933;DHT22;13731;51.166;4.474;2023-01-24T18:13:36;3.30;1.00
25933;DHT22;13731;51.166;4.474;2023-01-24T18:16:04;3.40;1.00
25933;DHT22;13731;51.166;4.474;2023-01-24T18:18:30;3.20;1.00
25933;DHT22;13731;51.166;4.474;2023-01-24T18:20:56;3.40;1.00